createdAt,value
2023-03-17T00:00:39.167Z,2.87
2023-03-17T00:01:41.700Z,2.74
2023-03-17T00:02:46.921Z,3.06
2023-03-17T00:03:50.599Z,2.62
2023-03-17T00:04:53.824Z,4.13
2023-03-17T00:05:58.535Z,4.32
2023-03-17T00:07:01.802Z,3.73
2023-03-17T00:08:10.735Z,3.45
2023-03-17T00:09:15.497Z,3.15
2023-03-17T00:10:22.657Z,2.24
2023-03-17T00:11:27.609Z,3.09
2023-03-17T00:12:30.107Z,2.78
2023-03-17T00:13:33.777Z,2.69
2023-03-17T00:14:36.251Z,5.47
2023-03-17T00:15:40.130Z,4.45
2023-03-17T00:16:45.094Z,2.76
2023-03-17T00:17:49.631Z,3.07
2023-03-17T00:18:54.887Z,3.28
2023-03-17T00:19:59.063Z,2.27
2023-03-17T00:21:01.426Z,3.75
2023-03-17T00:22:08.209Z,3.28
2023-03-17T00:23:16.897Z,3.86
2023-03-17T00:24:20.243Z,5.80
2023-03-17T00:25:27.287Z,4.36
2023-03-17T00:26:31.052Z,5.45
2023-03-17T00:27:33.276Z,5.21
2023-03-17T00:28:36.562Z,3.54
2023-03-17T00:29:39.963Z,2.84
2023-03-17T00:30:43.142Z,2.66
2023-03-17T00:31:46.452Z,2.59
2023-03-17T00:32:52.894Z,2.82
2023-03-17T00:33:57.024Z,3.90
2023-03-17T00:35:00.134Z,2.86
2023-03-17T00:36:03.722Z,3.34
2023-03-17T00:37:05.980Z,3.35
2023-03-17T00:38:17.280Z,5.71
2023-03-17T00:39:19.823Z,4.67
2023-03-17T00:40:29.415Z,3.36
2023-03-17T00:41:31.827Z,3.82
2023-03-17T00:42:35.227Z,3.98
2023-03-17T00:43:37.560Z,3.93
2023-03-17T00:44:40.764Z,3.27
2023-03-17T00:45:44.160Z,3.01
2023-03-17T00:46:47.476Z,2.44
2023-03-17T00:47:51.986Z,2.65
2023-03-17T00:48:55.733Z,2.66
2023-03-17T00:49:58.451Z,4.06
2023-03-17T00:51:01.623Z,3.62
2023-03-17T00:52:04.376Z,2.75
2023-03-17T00:53:13.644Z,5.72
2023-03-17T00:54:17.335Z,3.65
2023-03-17T00:55:22.320Z,2.79
2023-03-17T00:56:26.174Z,4.48
2023-03-17T00:57:29.720Z,3.01
2023-03-17T00:58:34.251Z,3.87
2023-03-17T00:59:41.639Z,3.23
2023-03-17T01:00:44.139Z,2.39
2023-03-17T01:01:47.709Z,3.32
2023-03-17T01:02:50.839Z,3.60
2023-03-17T01:03:54.169Z,4.23
2023-03-17T01:05:05.691Z,3.19
2023-03-17T01:06:13.737Z,3.22
2023-03-17T01:07:16.660Z,2.45
2023-03-17T01:08:20.128Z,3.55
2023-03-17T01:09:26.751Z,2.45
2023-03-17T01:10:31.270Z,4.14
2023-03-17T01:11:36.615Z,5.18
2023-03-17T01:12:39.895Z,3.95
2023-03-17T01:13:42.240Z,2.53
2023-03-17T01:14:45.474Z,3.12
2023-03-17T01:15:50.436Z,3.01
2023-03-17T01:16:55.098Z,2.64
2023-03-17T01:17:58.509Z,2.82
2023-03-17T01:19:02.174Z,2.72
2023-03-17T01:20:05.597Z,3.45
2023-03-17T01:21:09.090Z,4.22
2023-03-17T01:22:11.610Z,3.37
2023-03-17T01:23:14.805Z,3.34
2023-03-17T01:24:17.043Z,2.92
2023-03-17T01:25:20.657Z,2.66
2023-03-17T01:26:25.704Z,2.73
2023-03-17T01:27:35.013Z,4.17
2023-03-17T01:28:37.409Z,4.24
2023-03-17T01:29:40.781Z,3.79
2023-03-17T01:30:43.789Z,3.50
2023-03-17T01:31:47.674Z,3.04
2023-03-17T01:32:50.196Z,3.25
2023-03-17T01:33:54.024Z,4.41
2023-03-17T01:34:56.400Z,4.36
2023-03-17T01:35:59.625Z,2.95
2023-03-17T01:37:01.801Z,3.35
2023-03-17T01:38:05.817Z,4.92
2023-03-17T01:39:08.097Z,5.26
2023-03-17T01:40:17.246Z,3.41
2023-03-17T01:41:20.804Z,3.42
2023-03-17T01:42:24.025Z,3.32
2023-03-17T01:43:29.651Z,3.90
2023-03-17T01:44:32.951Z,5.65
2023-03-17T01:46:26.181Z,4.73
2023-03-17T01:47:30.653Z,4.07
2023-03-17T01:48:40.141Z,3.33
2023-03-17T01:49:43.115Z,4.50
2023-03-17T01:50:49.136Z,4.23
2023-03-17T01:52:02.419Z,3.31
2023-03-17T01:53:06.579Z,3.80
2023-03-17T01:54:12.020Z,2.51
2023-03-17T01:55:19.303Z,2.65
2023-03-17T01:56:22.244Z,5.18
2023-03-17T01:57:32.575Z,4.58
2023-03-17T01:58:36.677Z,3.37
2023-03-17T01:59:46.872Z,4.44
2023-03-17T02:00:49.068Z,5.13
2023-03-17T02:01:58.433Z,5.28
2023-03-17T02:03:00.679Z,4.43
2023-03-17T02:04:04.741Z,3.49
2023-03-17T02:05:10.890Z,5.57
2023-03-17T02:06:14.595Z,5.24
2023-03-17T02:07:16.746Z,3.10
2023-03-17T02:08:21.104Z,3.50
2023-03-17T02:09:23.260Z,3.10
2023-03-17T02:10:30.033Z,2.98
2023-03-17T02:11:34.165Z,2.68
2023-03-17T02:12:37.862Z,2.66
2023-03-17T02:13:43.002Z,3.63
2023-03-17T02:14:46.737Z,4.83
2023-03-17T02:15:51.581Z,6.24
2023-03-17T02:16:55.212Z,4.43
2023-03-17T02:17:57.876Z,4.79
2023-03-17T02:19:01.513Z,5.41
2023-03-17T02:20:34.526Z,4.31
2023-03-17T02:21:43.483Z,4.95
2023-03-17T02:22:50.349Z,4.35
2023-03-17T02:23:52.449Z,3.77
2023-03-17T02:24:59.426Z,5.29
2023-03-17T02:26:04.001Z,3.58
2023-03-17T02:27:13.056Z,2.49
2023-03-17T02:28:21.842Z,3.36
2023-03-17T02:29:25.671Z,2.69
2023-03-17T02:30:28.965Z,2.32
2023-03-17T02:31:32.986Z,2.98
2023-03-17T02:32:36.871Z,4.16
2023-03-17T02:33:39.165Z,3.65
2023-03-17T02:34:42.415Z,5.09
2023-03-17T02:35:44.535Z,4.76
2023-03-17T02:36:49.165Z,3.22
2023-03-17T02:37:51.940Z,5.04
2023-03-17T02:38:55.085Z,5.00
2023-03-17T02:39:57.799Z,4.60
2023-03-17T02:41:01.211Z,2.98
2023-03-17T02:42:05.473Z,3.03
2023-03-17T02:43:07.607Z,3.29
2023-03-17T02:44:11.473Z,2.63
2023-03-17T02:45:14.419Z,4.13
2023-03-17T02:46:17.837Z,5.26
2023-03-17T02:47:20.627Z,3.36
2023-03-17T02:48:24.107Z,3.15
2023-03-17T02:49:28.759Z,3.40
2023-03-17T02:50:31.744Z,4.25
2023-03-17T02:51:35.580Z,2.85
2023-03-17T02:52:39.111Z,2.78
2023-03-17T02:53:42.289Z,2.92
2023-03-17T02:54:44.408Z,3.27
2023-03-17T02:55:47.548Z,3.33
2023-03-17T02:56:49.790Z,3.29
2023-03-17T02:57:52.893Z,5.11
2023-03-17T02:58:55.777Z,6.35
2023-03-17T02:59:58.993Z,4.56
2023-03-17T03:01:01.149Z,2.93
2023-03-17T03:02:04.321Z,3.03
2023-03-17T03:03:06.870Z,5.56
2023-03-17T03:04:09.969Z,4.94
2023-03-17T03:05:12.729Z,3.31
2023-03-17T03:06:16.418Z,3.78
2023-03-17T03:07:18.652Z,2.82
2023-03-17T03:08:23.182Z,2.78
2023-03-17T03:09:25.857Z,2.39
2023-03-17T03:10:29.302Z,2.68
2023-03-17T03:11:31.773Z,4.39
2023-03-17T03:12:35.075Z,4.21
2023-03-17T03:13:37.671Z,4.51
2023-03-17T03:14:41.007Z,3.79
2023-03-17T03:15:43.676Z,3.78
2023-03-17T03:16:48.193Z,3.88
2023-03-17T03:17:51.318Z,3.74
2023-03-17T03:18:54.543Z,3.55
2023-03-17T03:19:56.706Z,3.45
2023-03-17T03:21:00.119Z,3.45
2023-03-17T03:22:02.348Z,4.09
2023-03-17T03:23:05.590Z,3.45
2023-03-17T03:24:09.274Z,2.92
2023-03-17T03:25:12.605Z,2.69
2023-03-17T03:26:14.980Z,2.07
2023-03-17T03:27:18.482Z,2.57
2023-03-17T03:28:20.676Z,3.40
2023-03-17T03:29:23.765Z,3.16
2023-03-17T03:30:27.012Z,2.58
2023-03-17T03:31:30.226Z,2.45
2023-03-17T03:32:32.438Z,2.95
2023-03-17T03:33:36.661Z,2.62
2023-03-17T03:34:39.731Z,2.36
2023-03-17T03:35:44.232Z,2.33
2023-03-17T03:36:46.489Z,3.30
2023-03-17T03:37:49.623Z,2.26
2023-03-17T03:38:51.895Z,2.94
2023-03-17T03:39:56.335Z,5.72
2023-03-17T03:40:58.456Z,4.33
2023-03-17T03:42:01.609Z,5.62
2023-03-17T03:43:19.884Z,5.41
2023-03-17T03:44:25.585Z,3.81
2023-03-17T03:45:27.885Z,3.73
2023-03-17T03:46:31.383Z,4.11
2023-03-17T03:47:33.591Z,3.97
2023-03-17T03:48:36.798Z,4.58
2023-03-17T03:49:39.085Z,4.62
2023-03-17T03:50:42.214Z,3.54
2023-03-17T03:51:44.434Z,2.95
2023-03-17T03:52:47.689Z,4.80
2023-03-17T03:53:49.808Z,4.24
2023-03-17T03:54:52.989Z,3.80
2023-03-17T03:55:56.542Z,2.71
2023-03-17T03:56:59.725Z,2.69
2023-03-17T03:58:01.858Z,2.69
2023-03-17T03:59:05.096Z,3.14
2023-03-17T04:00:09.103Z,2.75
2023-03-17T04:01:12.407Z,3.30
2023-03-17T04:02:14.628Z,2.96
2023-03-17T04:03:17.860Z,2.66
2023-03-17T04:04:20.084Z,2.56
2023-03-17T04:05:23.485Z,2.59
2023-03-17T04:06:25.630Z,2.98
2023-03-17T04:07:28.795Z,3.12
2023-03-17T04:08:31.732Z,3.51
2023-03-17T04:09:35.183Z,4.01
2023-03-17T04:10:37.479Z,2.97
2023-03-17T04:11:41.977Z,3.14
2023-03-17T04:12:45.860Z,3.15
2023-03-17T04:13:48.032Z,3.52
2023-03-17T04:14:51.275Z,2.76
2023-03-17T04:15:53.477Z,3.60
2023-03-17T04:16:56.846Z,2.75
2023-03-17T04:17:59.010Z,2.50
2023-03-17T04:19:02.454Z,3.68
2023-03-17T04:20:05.602Z,4.38
2023-03-17T04:21:09.309Z,3.35
2023-03-17T04:22:13.240Z,6.06
2023-03-17T04:23:16.359Z,6.52
2023-03-17T04:24:18.469Z,4.47
2023-03-17T04:25:21.688Z,4.29
2023-03-17T04:26:24.326Z,3.77
2023-03-17T04:27:28.877Z,3.60
2023-03-17T04:28:31.672Z,3.07
2023-03-17T04:29:34.851Z,3.83
2023-03-17T04:30:38.031Z,5.68
2023-03-17T04:31:40.787Z,4.61
2023-03-17T04:32:44.480Z,4.78
2023-03-17T04:33:47.276Z,6.07
2023-03-17T04:34:50.459Z,4.51
2023-03-17T04:35:52.667Z,3.92
2023-03-17T04:36:56.236Z,5.86
2023-03-17T04:37:58.505Z,4.55
2023-03-17T04:39:01.978Z,4.00
2023-03-17T04:40:05.248Z,5.06
2023-03-17T04:41:08.391Z,3.46
2023-03-17T04:42:11.357Z,2.85
2023-03-17T04:43:16.813Z,2.98
2023-03-17T04:44:19.537Z,3.21
2023-03-17T04:45:22.818Z,3.14
2023-03-17T04:46:25.043Z,2.60
2023-03-17T04:47:28.191Z,2.85
2023-03-17T04:48:31.456Z,4.06
2023-03-17T04:49:34.662Z,6.00
2023-03-17T04:50:36.956Z,4.73
2023-03-17T04:51:40.067Z,4.18
2023-03-17T04:52:42.411Z,5.23
2023-03-17T04:53:46.031Z,4.48
2023-03-17T04:54:48.201Z,3.42
2023-03-17T04:55:51.504Z,3.60
2023-03-17T04:56:53.768Z,4.21
2023-03-17T04:57:56.985Z,4.18
2023-03-17T04:59:00.531Z,3.67
2023-03-17T05:00:04.576Z,3.51
2023-03-17T05:01:08.627Z,2.75
2023-03-17T05:02:11.889Z,2.66
2023-03-17T05:03:26.344Z,2.55
2023-03-17T05:04:32.221Z,3.68
2023-03-17T05:05:35.126Z,6.56
2023-03-17T05:06:38.532Z,6.92
2023-03-17T05:07:41.575Z,5.08
2023-03-17T05:08:45.456Z,4.50
2023-03-17T05:09:48.043Z,3.86
2023-03-17T05:10:51.442Z,2.44
2023-03-17T05:11:53.588Z,4.56
2023-03-17T05:12:56.766Z,4.79
2023-03-17T05:14:00.368Z,3.73
2023-03-17T05:15:05.272Z,2.86
2023-03-17T05:16:09.174Z,2.79
2023-03-17T05:17:12.527Z,2.73
2023-03-17T05:18:15.192Z,2.44
2023-03-17T05:19:19.211Z,2.28
2023-03-17T05:20:21.364Z,2.31
2023-03-17T05:21:24.858Z,2.62
2023-03-17T05:22:27.222Z,2.44
2023-03-17T05:23:30.585Z,2.48
2023-03-17T05:24:33.170Z,3.21
2023-03-17T05:25:36.689Z,3.70
2023-03-17T05:26:40.632Z,3.70
2023-03-17T05:27:43.372Z,3.01
2023-03-17T05:28:46.548Z,2.87
2023-03-17T05:29:50.113Z,4.10
2023-03-17T05:30:53.942Z,5.47
2023-03-17T05:31:57.111Z,4.71
2023-03-17T05:32:59.359Z,3.85
2023-03-17T05:34:02.579Z,3.86
2023-03-17T05:35:06.132Z,3.85
2023-03-17T05:36:10.251Z,3.72
2023-03-17T05:37:12.948Z,4.97
2023-03-17T05:38:17.012Z,3.94
2023-03-17T05:39:19.188Z,3.38
2023-03-17T05:40:24.016Z,4.80
2023-03-17T05:41:26.529Z,4.67
2023-03-17T05:42:29.695Z,7.06
2023-03-17T05:43:31.891Z,5.39
2023-03-17T05:44:35.474Z,4.18
2023-03-17T05:45:39.312Z,4.51
2023-03-17T05:46:42.474Z,4.79
2023-03-17T05:47:45.776Z,3.18
2023-03-17T05:48:48.961Z,3.49
2023-03-17T05:49:51.248Z,3.41
2023-03-17T05:50:54.698Z,2.72
2023-03-17T05:51:57.038Z,2.71
2023-03-17T05:53:00.871Z,2.64
2023-03-17T05:54:03.082Z,3.19
2023-03-17T05:55:07.819Z,3.06
2023-03-17T05:56:11.000Z,2.73
2023-03-17T05:57:13.205Z,2.64
2023-03-17T05:58:17.012Z,4.85
2023-03-17T05:59:19.191Z,4.31
2023-03-17T06:00:23.211Z,3.11
2023-03-17T06:01:27.235Z,3.01
2023-03-17T06:02:30.521Z,3.33
2023-03-17T06:03:32.745Z,3.21
2023-03-17T06:04:36.595Z,3.87
2023-03-17T06:05:39.656Z,4.24
2023-03-17T06:06:42.795Z,3.14
2023-03-17T06:07:54.615Z,5.61
2023-03-17T06:08:59.757Z,3.81
2023-03-17T06:10:02.320Z,3.20
2023-03-17T06:11:05.600Z,2.91
2023-03-17T06:12:08.700Z,3.34
2023-03-17T06:13:12.881Z,3.23
2023-03-17T06:14:15.087Z,3.54
2023-03-17T06:15:18.991Z,3.18
2023-03-17T06:16:22.385Z,2.93
2023-03-17T06:17:26.411Z,3.44
2023-03-17T06:18:29.684Z,3.71
2023-03-17T06:19:32.032Z,5.12
2023-03-17T06:20:36.661Z,5.44
2023-03-17T06:21:38.956Z,3.86
2023-03-17T06:23:00.306Z,4.21
2023-03-17T06:24:07.140Z,7.47
2023-03-17T06:25:10.662Z,4.09
2023-03-17T06:26:13.814Z,7.10
2023-03-17T06:27:15.939Z,7.14
2023-03-17T06:28:19.691Z,7.67
2023-03-17T06:29:22.648Z,8.69
2023-03-17T06:30:25.795Z,7.48
2023-03-17T06:31:28.037Z,6.64
2023-03-17T06:32:33.026Z,5.29
2023-03-17T06:33:35.303Z,4.53
2023-03-17T06:34:38.389Z,4.04
2023-03-17T06:35:41.642Z,4.07
2023-03-17T06:36:44.135Z,8.40
2023-03-17T06:37:47.878Z,9.04
2023-03-17T06:38:50.112Z,13.88
2023-03-17T06:39:53.262Z,23.89
2023-03-17T06:40:55.761Z,17.99
2023-03-17T06:41:58.880Z,18.52
2023-03-17T06:43:01.468Z,11.49
2023-03-17T06:44:05.384Z,7.75
2023-03-17T06:45:09.457Z,6.61
2023-03-17T06:46:13.210Z,5.27
2023-03-17T06:47:15.388Z,4.89
2023-03-17T06:48:19.941Z,4.57
2023-03-17T06:49:22.103Z,4.43
2023-03-17T06:50:25.425Z,6.06
2023-03-17T06:51:28.205Z,5.85
2023-03-17T06:52:31.643Z,7.22
2023-03-17T06:53:33.862Z,6.40
2023-03-17T06:54:37.286Z,4.62
2023-03-17T06:55:39.759Z,13.02
2023-03-17T06:56:42.911Z,17.78
2023-03-17T06:57:46.125Z,12.03
2023-03-17T06:58:48.392Z,11.13
2023-03-17T06:59:51.580Z,11.17
2023-03-17T07:00:54.217Z,8.71
2023-03-17T07:01:57.819Z,13.40
2023-03-17T07:03:00.077Z,31.38
2023-03-17T07:04:05.381Z,29.71
2023-03-17T07:05:08.273Z,23.84
2023-03-17T07:06:11.427Z,18.50
2023-03-17T07:07:13.581Z,17.39
2023-03-17T07:08:17.974Z,13.50
2023-03-17T07:09:22.118Z,10.92
2023-03-17T07:10:25.530Z,12.53
2023-03-17T07:11:29.300Z,11.69
2023-03-17T07:12:32.976Z,9.72
2023-03-17T07:13:37.160Z,11.07
2023-03-17T07:14:40.449Z,16.20
2023-03-17T07:15:45.179Z,14.72
2023-03-17T07:16:48.601Z,13.31
2023-03-17T07:17:52.028Z,11.16
2023-03-17T07:18:54.181Z,11.78
2023-03-17T07:19:58.866Z,11.20
2023-03-17T07:21:02.261Z,8.11
2023-03-17T07:22:05.460Z,7.88
2023-03-17T07:23:20.112Z,9.40
2023-03-17T07:24:22.693Z,7.66
2023-03-17T07:25:26.127Z,4.89
2023-03-17T07:26:28.311Z,3.78
2023-03-17T07:27:31.433Z,3.14
2023-03-17T07:28:33.783Z,2.58
2023-03-17T07:29:36.980Z,2.09
2023-03-17T07:30:40.307Z,2.06
2023-03-17T07:31:44.144Z,1.72
2023-03-17T07:32:47.734Z,1.71
2023-03-17T07:33:49.927Z,2.27
2023-03-17T07:34:53.094Z,3.20
2023-03-17T07:35:56.633Z,3.05
2023-03-17T07:36:59.839Z,2.50
2023-03-17T07:38:03.087Z,2.52
2023-03-17T07:39:06.494Z,3.87
2023-03-17T07:40:10.277Z,5.85
2023-03-17T07:41:14.131Z,7.25
2023-03-17T07:42:17.407Z,9.28
2023-03-17T07:43:20.640Z,9.17
2023-03-17T07:44:24.156Z,7.47
2023-03-17T07:45:27.843Z,6.47
2023-03-17T07:46:31.405Z,6.97
2023-03-17T07:47:34.767Z,6.65
2023-03-17T07:48:40.839Z,7.29
2023-03-17T07:49:44.141Z,5.80
2023-03-17T07:50:46.538Z,4.55
2023-03-17T07:51:51.054Z,3.40
2023-03-17T07:52:53.204Z,2.69
2023-03-17T07:54:03.305Z,3.38
2023-03-17T07:55:10.580Z,3.22
2023-03-17T07:56:13.310Z,3.28
2023-03-17T07:57:17.143Z,3.03
2023-03-17T07:58:20.304Z,2.74
2023-03-17T07:59:23.723Z,6.86
2023-03-17T08:00:27.848Z,6.95
2023-03-17T08:01:31.594Z,5.49
2023-03-17T08:02:33.854Z,6.08
2023-03-17T08:03:39.882Z,4.59
2023-03-17T08:04:43.946Z,3.36
2023-03-17T08:05:53.312Z,4.95
2023-03-17T08:06:57.996Z,5.62
2023-03-17T08:08:00.485Z,4.55
2023-03-17T08:09:03.782Z,4.21
2023-03-17T08:10:07.604Z,3.37
2023-03-17T08:11:11.545Z,2.70
2023-03-17T08:12:14.642Z,2.80
2023-03-17T08:13:17.957Z,2.88
2023-03-17T08:14:21.285Z,3.27
2023-03-17T08:15:23.485Z,3.99
2023-03-17T08:16:26.842Z,3.88
2023-03-17T08:17:29.147Z,3.90
2023-03-17T08:18:32.320Z,4.31
2023-03-17T08:19:34.598Z,4.09
2023-03-17T08:20:37.997Z,5.27
2023-03-17T08:21:40.399Z,5.51
2023-03-17T08:22:45.220Z,5.94
2023-03-17T08:23:48.529Z,5.99
2023-03-17T08:24:52.030Z,4.96
2023-03-17T08:25:57.441Z,4.19
2023-03-17T08:27:01.135Z,5.40
2023-03-17T08:28:04.551Z,5.01
2023-03-17T08:29:08.269Z,4.29
2023-03-17T08:30:12.768Z,5.04
2023-03-17T08:31:18.553Z,5.06
2023-03-17T08:32:20.767Z,4.66
2023-03-17T08:33:24.023Z,3.75
2023-03-17T08:34:26.328Z,5.61
2023-03-17T08:35:30.072Z,5.53
2023-03-17T08:36:33.729Z,5.32
2023-03-17T08:37:37.871Z,5.27
2023-03-17T08:38:43.945Z,5.36
2023-03-17T08:39:46.150Z,5.21
2023-03-17T08:40:50.516Z,4.82
2023-03-17T08:41:53.988Z,4.22
2023-03-17T08:42:57.563Z,3.67
2023-03-17T08:44:00.141Z,3.22
2023-03-17T08:45:04.400Z,2.40
2023-03-17T08:46:10.445Z,2.15
2023-03-17T08:47:12.666Z,3.78
2023-03-17T08:48:15.892Z,3.33
2023-03-17T08:49:18.472Z,3.17
2023-03-17T08:50:24.490Z,3.60
2023-03-17T08:51:30.720Z,3.81
2023-03-17T08:52:34.023Z,3.03
2023-03-17T08:53:37.911Z,3.95
2023-03-17T08:54:42.579Z,2.94
2023-03-17T08:55:44.735Z,3.60
2023-03-17T08:56:47.921Z,3.54
2023-03-17T08:57:50.076Z,3.60
2023-03-17T08:58:53.701Z,3.34
2023-03-17T08:59:56.022Z,3.93
2023-03-17T09:01:01.206Z,3.38
2023-03-17T09:02:03.423Z,2.75
2023-03-17T09:03:06.836Z,3.44
2023-03-17T09:04:11.365Z,3.57
2023-03-17T09:05:17.491Z,4.13
2023-03-17T09:06:21.348Z,3.46
2023-03-17T09:07:24.450Z,3.38
2023-03-17T09:08:27.724Z,2.98
2023-03-17T09:09:32.109Z,2.99
2023-03-17T09:10:36.274Z,2.49
2023-03-17T09:11:40.494Z,2.80
2023-03-17T09:12:42.850Z,3.35
2023-03-17T09:13:47.521Z,3.23
2023-03-17T09:14:50.499Z,3.73
2023-03-17T09:15:54.331Z,3.31
2023-03-17T09:16:56.927Z,2.77
2023-03-17T09:18:00.133Z,2.83
2023-03-17T09:19:03.747Z,3.12
2023-03-17T09:20:06.906Z,2.99
2023-03-17T09:21:12.261Z,2.78
2023-03-17T09:22:16.289Z,2.79
2023-03-17T09:23:19.442Z,2.41
2023-03-17T09:24:21.657Z,3.14
2023-03-17T09:25:24.962Z,3.15
2023-03-17T09:26:29.446Z,3.05
2023-03-17T09:27:31.647Z,3.24
2023-03-17T09:28:35.105Z,3.17
2023-03-17T09:29:38.321Z,3.21
2023-03-17T09:30:42.855Z,2.74
2023-03-17T09:31:47.139Z,3.03
2023-03-17T09:32:50.460Z,2.75
2023-03-17T09:33:53.604Z,2.68
2023-03-17T09:34:56.318Z,2.54
2023-03-17T09:35:59.556Z,2.64
2023-03-17T09:37:02.963Z,2.88
2023-03-17T09:38:06.329Z,2.89
2023-03-17T09:39:09.849Z,2.96
2023-03-17T09:40:18.984Z,3.65
2023-03-17T09:41:49.947Z,2.88
2023-03-17T09:43:03.674Z,2.67
2023-03-17T09:44:18.110Z,2.85
2023-03-17T09:45:32.380Z,2.55
2023-03-17T09:46:49.026Z,2.88
2023-03-17T09:48:13.117Z,2.82
2023-03-17T09:49:21.046Z,2.55
2023-03-17T09:50:28.196Z,2.48
2023-03-17T09:51:33.584Z,2.60
2023-03-17T09:52:36.330Z,2.69
2023-03-17T09:53:50.421Z,2.49
2023-03-17T09:54:52.655Z,2.06
2023-03-17T09:55:59.909Z,2.42
2023-03-17T09:57:14.290Z,3.03
2023-03-17T09:58:22.343Z,2.71
2023-03-17T09:59:31.275Z,3.06
2023-03-17T10:00:34.703Z,3.00
2023-03-17T10:01:43.872Z,2.97
2023-03-17T10:02:47.293Z,2.74
2023-03-17T10:03:51.584Z,2.37
2023-03-17T10:04:54.204Z,2.75
2023-03-17T10:06:13.456Z,2.42
2023-03-17T10:07:24.687Z,2.47
2023-03-17T10:08:34.839Z,2.97
2023-03-17T10:09:47.368Z,2.78
2023-03-17T10:10:58.906Z,2.61
2023-03-17T10:12:10.793Z,2.56
2023-03-17T10:13:38.473Z,2.61
2023-03-17T10:14:52.568Z,2.44
2023-03-17T10:16:00.743Z,2.67
2023-03-17T10:17:16.586Z,2.43
2023-03-17T10:18:26.376Z,3.11
2023-03-17T10:19:35.310Z,4.38
2023-03-17T10:20:51.523Z,3.55
2023-03-17T10:21:59.910Z,2.30
2023-03-17T10:23:07.086Z,2.87
2023-03-17T10:24:12.757Z,2.92
2023-03-17T10:25:19.057Z,3.79
2023-03-17T10:26:29.775Z,3.03
2023-03-17T10:27:38.536Z,2.52
2023-03-17T10:28:41.023Z,2.62
2023-03-17T10:29:45.576Z,2.62
2023-03-17T10:30:49.738Z,3.42
2023-03-17T10:31:57.072Z,4.91
2023-03-17T10:33:04.119Z,3.97
2023-03-17T10:34:15.792Z,3.01
2023-03-17T10:35:19.080Z,2.75
2023-03-17T10:36:36.344Z,3.15
2023-03-17T10:37:38.512Z,3.62
2023-03-17T10:38:43.250Z,2.84
2023-03-17T10:39:49.133Z,2.82
2023-03-17T10:40:59.579Z,2.56
2023-03-17T10:42:11.329Z,2.16
2023-03-17T10:43:20.633Z,2.45
2023-03-17T10:44:33.507Z,3.17
2023-03-17T10:45:43.270Z,2.38
2023-03-17T10:46:54.599Z,3.12
2023-03-17T10:47:59.530Z,2.44
2023-03-17T10:49:08.273Z,2.43
2023-03-17T10:50:24.553Z,2.63
2023-03-17T10:51:33.545Z,2.77
2023-03-17T10:52:40.661Z,2.48
2023-03-17T10:53:43.967Z,2.41
2023-03-17T10:54:49.323Z,2.31
2023-03-17T10:55:55.581Z,2.68
2023-03-17T10:57:03.613Z,2.30
2023-03-17T10:58:14.442Z,2.56
2023-03-17T10:59:26.333Z,2.67
2023-03-17T11:00:33.884Z,2.51
2023-03-17T11:01:41.365Z,2.78
2023-03-17T11:02:47.377Z,2.92
2023-03-17T11:03:51.564Z,2.58
2023-03-17T11:04:59.781Z,2.44
2023-03-17T11:06:05.723Z,2.45
2023-03-17T11:07:16.176Z,2.87
2023-03-17T11:08:21.227Z,2.38
2023-03-17T11:09:23.873Z,2.40
2023-03-17T11:10:30.315Z,1.99
2023-03-17T11:11:41.844Z,1.97
2023-03-17T11:12:45.385Z,2.59
2023-03-17T11:13:48.189Z,2.38
2023-03-17T11:14:57.528Z,2.09
2023-03-17T11:16:11.642Z,2.39
2023-03-17T11:17:19.031Z,2.02
2023-03-17T11:18:30.993Z,2.20
2023-03-17T11:19:48.634Z,2.23
2023-03-17T11:21:00.216Z,2.24
2023-03-17T11:22:11.508Z,2.41
2023-03-17T11:23:38.568Z,2.33
2023-03-17T11:24:50.517Z,2.26
2023-03-17T11:26:06.670Z,2.13
2023-03-17T11:27:20.272Z,2.10
2023-03-17T11:28:28.244Z,2.17
2023-03-17T11:29:45.733Z,2.02
2023-03-17T11:31:05.135Z,2.20
2023-03-17T11:32:26.662Z,2.22
2023-03-17T11:33:40.332Z,2.41
2023-03-17T11:35:01.345Z,2.34
2023-03-17T11:36:17.336Z,2.55
2023-03-17T11:37:38.210Z,2.15
2023-03-17T11:38:56.912Z,2.30
2023-03-17T11:40:07.824Z,2.05
2023-03-17T11:41:46.495Z,1.98
2023-03-17T11:43:01.048Z,2.33
2023-03-17T11:44:35.964Z,2.55
2023-03-17T11:45:49.958Z,2.81
2023-03-17T11:47:06.731Z,2.84
2023-03-17T11:48:25.273Z,2.23
2023-03-17T11:49:35.791Z,2.01
2023-03-17T11:50:45.371Z,2.41
2023-03-17T11:52:01.685Z,3.46
2023-03-17T11:53:32.275Z,3.22
2023-03-17T11:54:48.127Z,2.08
2023-03-17T11:55:59.258Z,2.16
2023-03-17T11:57:06.042Z,2.18
2023-03-17T11:58:20.249Z,2.12
2023-03-17T11:59:35.510Z,1.98
2023-03-17T12:00:46.033Z,1.92
2023-03-17T12:01:59.533Z,1.96
2023-03-17T12:03:15.566Z,2.01
2023-03-17T12:04:26.457Z,1.93
2023-03-17T12:05:31.607Z,1.88
2023-03-17T12:06:40.827Z,1.84
2023-03-17T12:07:51.330Z,1.53
2023-03-17T12:08:59.743Z,1.67
2023-03-17T12:10:13.715Z,2.07
2023-03-17T12:11:23.251Z,1.74
2023-03-17T12:12:34.674Z,1.64
2023-03-17T12:13:43.125Z,1.68
2023-03-17T12:14:50.338Z,1.50
2023-03-17T12:15:58.390Z,1.76
2023-03-17T12:17:13.668Z,1.67
2023-03-17T12:18:25.250Z,1.62
2023-03-17T12:19:36.933Z,1.54
2023-03-17T12:20:52.658Z,1.46
2023-03-17T12:22:01.081Z,1.77
2023-03-17T12:23:13.253Z,1.75
2023-03-17T12:24:22.660Z,1.68
2023-03-17T12:25:32.858Z,1.38
2023-03-17T12:26:41.850Z,1.84
2023-03-17T12:27:54.088Z,2.13
2023-03-17T12:29:03.317Z,1.65
2023-03-17T12:30:21.502Z,1.28
2023-03-17T12:31:32.630Z,1.35
2023-03-17T12:32:44.417Z,1.77
2023-03-17T12:33:55.032Z,1.56
2023-03-17T12:34:59.662Z,1.55
2023-03-17T12:36:06.865Z,1.55
2023-03-17T12:37:09.962Z,1.29
2023-03-17T12:38:20.194Z,1.68
2023-03-17T12:39:29.701Z,1.54
2023-03-17T12:40:40.906Z,1.41
2023-03-17T12:42:17.466Z,1.91
2023-03-17T12:43:38.135Z,1.49
2023-03-17T12:45:06.241Z,1.65
2023-03-17T12:46:45.026Z,1.82
2023-03-17T12:48:11.892Z,1.37
2023-03-17T12:49:38.852Z,1.18
2023-03-17T12:51:17.616Z,1.68
2023-03-17T12:52:54.094Z,1.87
2023-03-17T12:53:56.958Z,2.04
2023-03-17T12:55:04.722Z,1.70
2023-03-17T12:56:17.111Z,1.92
2023-03-17T12:57:23.092Z,1.98
2023-03-17T12:58:35.149Z,1.56
2023-03-17T12:59:42.790Z,1.79
2023-03-17T13:00:50.769Z,1.83
2023-03-17T13:01:59.391Z,1.58
2023-03-17T13:03:19.849Z,1.57
2023-03-17T13:04:27.220Z,1.22
2023-03-17T13:05:33.382Z,1.36
2023-03-17T13:06:43.281Z,1.38
2023-03-17T13:07:52.507Z,1.41
2023-03-17T13:08:54.718Z,1.43
2023-03-17T13:10:21.617Z,1.56
2023-03-17T13:11:29.602Z,1.48
2023-03-17T13:12:58.054Z,1.47
2023-03-17T13:14:26.054Z,1.38
2023-03-17T13:15:58.002Z,1.20
2023-03-17T13:17:06.227Z,1.22
2023-03-17T13:18:29.580Z,1.30
2023-03-17T13:19:33.785Z,1.19
2023-03-17T13:20:44.875Z,1.05
2023-03-17T13:21:53.724Z,1.02
2023-03-17T13:23:12.219Z,1.04
2023-03-17T13:24:42.517Z,1.70
2023-03-17T13:25:53.496Z,1.39
2023-03-17T13:27:02.361Z,1.58
2023-03-17T13:28:25.759Z,1.62
2023-03-17T13:29:45.540Z,1.39
2023-03-17T13:31:10.429Z,1.52
2023-03-17T13:32:38.116Z,1.50
2023-03-17T13:33:51.406Z,1.58
2023-03-17T13:35:07.974Z,1.29
2023-03-17T13:36:28.608Z,1.34
2023-03-17T13:38:01.319Z,1.62
2023-03-17T13:39:27.072Z,1.94
2023-03-17T13:40:41.415Z,1.82
2023-03-17T13:42:17.796Z,1.80
2023-03-17T13:43:50.370Z,2.08
2023-03-17T13:45:16.404Z,1.91
2023-03-17T13:46:34.036Z,1.53
2023-03-17T13:47:42.009Z,1.26
2023-03-17T13:48:47.381Z,1.38
2023-03-17T13:49:54.116Z,1.61
2023-03-17T13:51:08.899Z,1.74
2023-03-17T13:52:16.432Z,1.72
2023-03-17T13:53:23.587Z,1.71
2023-03-17T13:54:32.264Z,1.51
2023-03-17T13:55:40.805Z,1.43
2023-03-17T13:56:53.850Z,1.19
2023-03-17T13:58:17.984Z,1.20
2023-03-17T13:59:22.929Z,1.28
2023-03-17T14:00:28.850Z,1.41
2023-03-17T14:01:40.720Z,1.40
2023-03-17T14:02:45.282Z,1.22
2023-03-17T14:03:54.115Z,1.31
2023-03-17T14:04:59.824Z,1.68
2023-03-17T14:06:08.091Z,1.23
2023-03-17T14:07:20.244Z,1.41
2023-03-17T14:08:30.135Z,1.28
2023-03-17T14:09:38.946Z,1.37
2023-03-17T14:10:41.353Z,1.71
2023-03-17T14:11:48.548Z,1.35
2023-03-17T14:12:59.901Z,1.63
2023-03-17T14:14:32.630Z,1.38
2023-03-17T14:15:47.978Z,1.43
2023-03-17T14:17:01.543Z,1.65
2023-03-17T14:18:11.171Z,1.63
2023-03-17T14:19:21.892Z,1.65
2023-03-17T14:20:27.222Z,1.67
2023-03-17T14:21:32.264Z,1.37
2023-03-17T14:22:44.945Z,1.47
2023-03-17T14:23:53.700Z,1.81
2023-03-17T14:25:10.124Z,1.72
2023-03-17T14:26:13.036Z,1.83
2023-03-17T14:27:16.492Z,1.97
2023-03-17T14:28:27.848Z,1.76
2023-03-17T14:29:34.215Z,1.66
2023-03-17T14:30:38.146Z,1.95
2023-03-17T14:31:40.681Z,2.01
2023-03-17T14:32:49.022Z,2.38
2023-03-17T14:33:56.810Z,6.16
2023-03-17T14:35:01.359Z,13.46
2023-03-17T14:36:08.095Z,11.14
2023-03-17T14:37:12.939Z,25.75
2023-03-17T14:38:20.548Z,11.45
2023-03-17T14:39:25.282Z,14.07
2023-03-17T14:40:32.351Z,24.50
2023-03-17T14:43:59.228Z,28.77
2023-03-17T14:45:05.693Z,14.21
2023-03-17T14:46:16.660Z,12.20
2023-03-17T14:47:24.704Z,5.95